createdAt,value
2018-12-21T00:01:11.189Z,4.70
2018-12-21T00:03:41.593Z,4.60
2018-12-21T00:06:11.903Z,4.60
2018-12-21T00:08:42.257Z,4.70
2018-12-21T00:11:12.582Z,4.70
2018-12-21T00:13:43.000Z,4.70
2018-12-21T00:16:13.316Z,4.70
2018-12-21T00:18:43.584Z,4.70
2018-12-21T00:21:21.629Z,4.70
2018-12-21T00:23:46.262Z,4.70
2018-12-21T00:26:16.560Z,4.60
2018-12-21T00:28:46.916Z,4.60
2018-12-21T00:31:22.429Z,4.60
2018-12-21T00:33:57.819Z,4.60
2018-12-21T00:36:33.179Z,4.60
2018-12-21T00:39:08.801Z,4.70
2018-12-21T00:41:38.308Z,4.80
2018-12-21T00:44:15.127Z,4.70
2018-12-21T00:46:49.808Z,4.70
2018-12-21T00:49:21.140Z,4.70
2018-12-21T00:51:51.409Z,4.80
2018-12-21T00:54:22.947Z,4.90
2018-12-21T00:56:53.239Z,5.00
2018-12-21T00:59:23.559Z,5.00
2018-12-21T01:01:53.826Z,5.10
2018-12-21T01:04:24.187Z,5.10
2018-12-21T01:06:54.466Z,5.20
2018-12-21T01:09:24.785Z,5.20
2018-12-21T01:11:55.299Z,5.20
2018-12-21T01:14:25.580Z,5.20
2018-12-21T01:16:55.917Z,5.20
2018-12-21T01:19:26.194Z,5.20
2018-12-21T01:21:56.528Z,5.20
2018-12-21T01:24:26.808Z,5.10
2018-12-21T01:26:57.116Z,5.00
2018-12-21T01:29:27.395Z,4.90
2018-12-21T01:31:57.707Z,4.80
2018-12-21T01:34:28.011Z,4.80
2018-12-21T01:36:58.308Z,4.80
2018-12-21T01:39:28.634Z,4.70
2018-12-21T01:41:58.963Z,4.80
2018-12-21T01:44:29.264Z,4.80
2018-12-21T01:46:59.631Z,4.80
2018-12-21T01:49:29.916Z,5.00
2018-12-21T01:52:00.332Z,4.90
2018-12-21T01:54:30.605Z,4.90
2018-12-21T01:57:00.912Z,4.80
2018-12-21T01:59:31.225Z,4.80
2018-12-21T02:02:01.636Z,4.80
2018-12-21T02:04:31.992Z,4.90
2018-12-21T02:07:02.280Z,5.00
2018-12-21T02:09:33.967Z,5.10
2018-12-21T02:12:04.272Z,5.20
2018-12-21T02:14:34.584Z,5.40
2018-12-21T02:17:04.861Z,5.30
2018-12-21T02:19:35.180Z,5.40
2018-12-21T02:22:05.443Z,5.50
2018-12-21T02:24:35.763Z,5.60
2018-12-21T02:27:06.191Z,5.70
2018-12-21T02:29:36.501Z,5.70
2018-12-21T02:32:06.782Z,5.90
2018-12-21T02:34:37.267Z,5.90
2018-12-21T02:37:07.556Z,5.90
2018-12-21T02:39:37.853Z,5.80
2018-12-21T02:42:08.120Z,5.50
2018-12-21T02:44:38.517Z,5.60
2018-12-21T02:47:08.875Z,5.70
2018-12-21T02:49:39.296Z,5.80
2018-12-21T02:52:09.591Z,6.00
2018-12-21T02:54:39.864Z,6.00
2018-12-21T02:57:10.164Z,5.90
2018-12-21T02:59:40.447Z,6.00
2018-12-21T03:02:10.761Z,6.00
2018-12-21T03:04:41.040Z,6.00
2018-12-21T03:07:11.336Z,6.00
2018-12-21T03:09:41.603Z,5.90
2018-12-21T03:12:11.923Z,5.90
2018-12-21T03:14:42.212Z,6.10
2018-12-21T03:17:12.514Z,6.00
2018-12-21T03:19:42.825Z,6.10
2018-12-21T03:22:15.165Z,6.20
2018-12-21T03:24:45.419Z,6.30
2018-12-21T03:27:15.760Z,6.30
2018-12-21T03:29:46.055Z,6.10
2018-12-21T03:32:16.452Z,6.20
2018-12-21T03:34:46.862Z,6.20
2018-12-21T03:37:17.118Z,6.30
2018-12-21T03:39:47.576Z,6.40
2018-12-21T03:42:17.869Z,6.30
2018-12-21T03:44:48.192Z,6.30
2018-12-21T03:47:18.456Z,6.40
2018-12-21T03:49:48.762Z,6.50
2018-12-21T03:52:24.229Z,6.40
2018-12-21T03:54:51.429Z,6.40
2018-12-21T03:57:21.688Z,6.30
2018-12-21T03:59:52.001Z,6.20
2018-12-21T04:02:22.379Z,6.20
2018-12-21T04:04:52.678Z,6.30
2018-12-21T04:07:23.289Z,6.20
2018-12-21T04:09:53.956Z,6.40
2018-12-21T04:12:24.229Z,6.30
2018-12-21T04:14:54.560Z,6.30
2018-12-21T04:17:24.842Z,6.20
2018-12-21T04:19:55.155Z,6.20
2018-12-21T04:22:33.751Z,6.20
2018-12-21T04:24:57.746Z,6.30
2018-12-21T04:27:28.084Z,6.40
2018-12-21T04:29:58.375Z,6.40
2018-12-21T04:32:28.664Z,6.40
2018-12-21T04:34:58.971Z,6.40
2018-12-21T04:37:29.274Z,6.50
2018-12-21T04:39:59.576Z,6.50
2018-12-21T04:42:29.900Z,6.50
2018-12-21T04:45:00.171Z,6.50
2018-12-21T04:47:30.494Z,6.40
2018-12-21T04:50:00.761Z,6.20
2018-12-21T04:52:31.183Z,6.10
2018-12-21T04:55:02.004Z,6.00
2018-12-21T04:57:32.268Z,6.00
2018-12-21T05:00:04.261Z,6.00
2018-12-21T05:02:34.529Z,6.10
2018-12-21T05:05:05.254Z,6.30
2018-12-21T05:07:35.519Z,6.40
2018-12-21T05:10:06.365Z,6.40
2018-12-21T05:12:37.220Z,6.50
2018-12-21T05:15:07.681Z,6.20
2018-12-21T05:17:37.961Z,6.30
2018-12-21T05:20:08.688Z,6.40
2018-12-21T05:22:38.948Z,6.30
2018-12-21T05:25:09.260Z,6.30
2018-12-21T05:27:39.536Z,6.30
2018-12-21T05:30:10.689Z,6.30
2018-12-21T05:32:40.981Z,6.10
2018-12-21T05:35:11.546Z,6.20
2018-12-21T05:37:41.813Z,6.30
2018-12-21T05:40:12.140Z,6.50
2018-12-21T05:42:42.420Z,6.50
2018-12-21T05:45:12.745Z,6.60
2018-12-21T05:47:43.039Z,6.40
2018-12-21T05:50:13.352Z,6.30
2018-12-21T05:52:43.648Z,6.30
2018-12-21T05:55:14.035Z,6.30
2018-12-21T05:57:44.337Z,6.40
2018-12-21T06:00:14.632Z,6.30
2018-12-21T06:02:45.025Z,6.40
2018-12-21T06:05:15.348Z,6.60
2018-12-21T06:07:45.649Z,6.50
2018-12-21T06:10:16.165Z,6.60
2018-12-21T06:12:46.477Z,6.60
2018-12-21T06:15:16.855Z,6.40
2018-12-21T06:17:47.177Z,6.50
2018-12-21T06:20:17.492Z,6.70
2018-12-21T06:22:47.837Z,6.80
2018-12-21T06:25:18.394Z,6.80
2018-12-21T06:27:48.732Z,6.80
2018-12-21T06:30:19.083Z,6.80
2018-12-21T06:32:49.372Z,6.70
2018-12-21T06:35:19.794Z,6.70
2018-12-21T06:37:50.078Z,6.80
2018-12-21T06:40:20.440Z,6.80
2018-12-21T06:42:50.906Z,6.80
2018-12-21T06:45:21.302Z,6.90
2018-12-21T06:47:51.576Z,6.90
2018-12-21T06:50:22.188Z,6.90
2018-12-21T06:52:52.547Z,6.80
2018-12-21T06:55:22.843Z,6.80
2018-12-21T06:57:53.253Z,6.80
2018-12-21T07:00:23.557Z,6.90
2018-12-21T07:02:54.216Z,6.90
2018-12-21T07:05:24.509Z,6.80
2018-12-21T07:07:54.910Z,6.80
2018-12-21T07:10:25.248Z,6.90
2018-12-21T07:12:55.552Z,7.00
2018-12-21T07:15:26.080Z,7.00
2018-12-21T07:17:56.360Z,7.00
2018-12-21T07:20:26.672Z,7.00
2018-12-21T07:22:57.066Z,7.00
2018-12-21T07:25:27.405Z,7.00
2018-12-21T07:27:57.747Z,7.10
2018-12-21T07:30:28.060Z,7.30
2018-12-21T07:32:58.366Z,7.40
2018-12-21T07:35:28.676Z,7.20
2018-12-21T07:37:59.004Z,7.10
2018-12-21T07:40:29.321Z,7.00
2018-12-21T07:42:59.608Z,6.90
2018-12-21T07:45:29.921Z,6.70
2018-12-21T07:48:00.257Z,6.80
2018-12-21T07:50:30.573Z,6.80
2018-12-21T07:53:00.844Z,6.90
2018-12-21T07:55:31.775Z,7.00
2018-12-21T07:58:02.048Z,6.90
2018-12-21T08:00:32.344Z,7.00
2018-12-21T08:03:03.012Z,6.90
2018-12-21T08:05:33.425Z,7.10
2018-12-21T08:08:03.712Z,7.10
2018-12-21T08:10:34.025Z,7.00
2018-12-21T08:13:04.507Z,6.90
2018-12-21T08:15:34.821Z,7.00
2018-12-21T08:18:05.096Z,7.00
2018-12-21T08:20:35.628Z,7.00
2018-12-21T08:23:05.908Z,6.90
2018-12-21T08:25:36.222Z,6.70
2018-12-21T08:28:06.535Z,6.60
2018-12-21T08:30:36.841Z,6.50
2018-12-21T08:33:07.204Z,6.60
2018-12-21T08:35:37.527Z,6.60
2018-12-21T08:38:08.080Z,6.60
2018-12-21T08:40:38.401Z,6.50
2018-12-21T08:43:08.659Z,6.70
2018-12-21T08:45:39.838Z,6.70
2018-12-21T08:48:10.236Z,6.60
2018-12-21T08:50:40.544Z,6.60
2018-12-21T08:53:10.816Z,6.70
2018-12-21T08:55:41.454Z,6.70
2018-12-21T08:58:11.736Z,6.50
2018-12-21T09:00:42.392Z,6.70
2018-12-21T09:03:12.678Z,6.70
2018-12-21T09:05:43.119Z,6.60
2018-12-21T09:08:13.530Z,6.60
2018-12-21T09:10:43.808Z,6.50
2018-12-21T09:13:14.442Z,6.50
2018-12-21T09:15:44.707Z,6.50
2018-12-21T09:18:15.035Z,6.50
2018-12-21T09:20:45.346Z,6.60
2018-12-21T09:23:15.752Z,6.80
2018-12-21T09:25:46.043Z,6.70
2018-12-21T09:28:16.355Z,6.70
2018-12-21T09:30:46.629Z,6.60
2018-12-21T09:33:16.940Z,6.60
2018-12-21T09:35:47.211Z,6.60
2018-12-21T09:38:17.516Z,6.70
2018-12-21T09:40:47.808Z,6.70
2018-12-21T09:43:18.211Z,6.60
2018-12-21T09:45:48.489Z,6.40
2018-12-21T09:48:18.796Z,6.40
2018-12-21T09:50:49.067Z,6.50
2018-12-21T09:53:19.380Z,6.60
2018-12-21T09:55:49.656Z,6.60
2018-12-21T09:58:19.963Z,6.60
2018-12-21T10:00:50.295Z,6.50
2018-12-21T10:03:20.616Z,6.60
2018-12-21T10:05:50.969Z,6.70
2018-12-21T10:08:21.267Z,6.70
2018-12-21T10:10:51.535Z,6.80
2018-12-21T10:13:21.841Z,6.70
2018-12-21T10:15:52.245Z,6.80
2018-12-21T10:18:22.573Z,6.90
2018-12-21T10:20:52.876Z,6.80
2018-12-21T10:23:23.154Z,6.70
2018-12-21T10:25:53.448Z,6.70
2018-12-21T10:28:23.796Z,6.70
2018-12-21T10:30:54.080Z,6.70
2018-12-21T10:33:24.472Z,6.70
2018-12-21T10:35:54.802Z,6.80
2018-12-21T10:38:25.159Z,6.70
2018-12-21T10:40:55.474Z,6.70
2018-12-21T10:43:25.784Z,6.70
2018-12-21T10:45:56.040Z,6.50
2018-12-21T10:48:26.353Z,6.50
2018-12-21T10:50:56.656Z,6.50
2018-12-21T10:53:26.987Z,6.60
2018-12-21T10:55:57.361Z,6.60
2018-12-21T10:58:27.688Z,6.70
2018-12-21T11:00:58.049Z,6.80
2018-12-21T11:03:28.361Z,7.00
2018-12-21T11:05:58.723Z,7.10
2018-12-21T11:08:29.108Z,7.20
2018-12-21T11:10:59.493Z,7.30
2018-12-21T11:13:29.867Z,7.30
2018-12-21T11:16:00.716Z,7.00
2018-12-21T11:18:31.368Z,6.90
2018-12-21T11:21:01.637Z,7.00
2018-12-21T11:23:31.941Z,7.20
2018-12-21T11:26:04.424Z,7.20
2018-12-21T11:28:34.727Z,7.20
2018-12-21T11:31:05.297Z,7.20
2018-12-21T11:33:35.648Z,7.30
2018-12-21T11:36:05.939Z,7.30
2018-12-21T11:38:36.270Z,7.40
2018-12-21T11:41:06.560Z,7.40
2018-12-21T11:43:36.890Z,7.60
2018-12-21T11:46:07.174Z,7.50
2018-12-21T11:48:37.472Z,7.30
2018-12-21T11:51:07.752Z,7.30
2018-12-21T11:53:38.045Z,7.40
2018-12-21T11:56:08.460Z,7.30
2018-12-21T11:58:38.805Z,7.30
2018-12-21T12:01:09.144Z,7.30
2018-12-21T12:03:39.554Z,7.50
2018-12-21T12:06:09.892Z,7.60
2018-12-21T12:08:40.337Z,7.60
2018-12-21T12:11:10.729Z,7.80
2018-12-21T12:13:41.025Z,7.90
2018-12-21T12:16:11.693Z,8.00
2018-12-21T12:18:42.021Z,8.00
2018-12-21T12:21:12.307Z,7.90
2018-12-21T12:23:42.601Z,7.90
2018-12-21T12:26:13.112Z,8.10
2018-12-21T12:28:43.416Z,8.30
2018-12-21T12:31:13.752Z,8.30
2018-12-21T12:33:44.117Z,8.20
2018-12-21T12:36:14.359Z,8.10
2018-12-21T12:38:44.731Z,8.40
2018-12-21T12:41:14.967Z,8.60
2018-12-21T12:43:45.261Z,8.60
2018-12-21T12:46:15.537Z,8.60
2018-12-21T12:48:45.821Z,8.70
2018-12-21T12:51:16.415Z,8.80
2018-12-21T12:53:46.652Z,8.90
2018-12-21T12:56:16.910Z,8.80
2018-12-21T12:58:47.195Z,8.90
2018-12-21T13:01:17.469Z,8.80
2018-12-21T13:03:47.823Z,8.90
2018-12-21T13:06:18.356Z,9.10
2018-12-21T13:08:48.614Z,9.20
2018-12-21T13:11:18.980Z,9.30
2018-12-21T13:13:49.265Z,9.40
2018-12-21T13:16:19.648Z,9.40
2018-12-21T13:18:50.018Z,9.40
2018-12-21T13:21:20.504Z,9.50
2018-12-21T13:23:50.812Z,9.60
2018-12-21T13:26:21.656Z,9.70
2018-12-21T13:28:52.029Z,9.60
2018-12-21T13:31:22.388Z,9.50
2018-12-21T13:33:52.697Z,9.40
2018-12-21T13:36:23.159Z,9.40
2018-12-21T13:38:53.451Z,9.40
2018-12-21T13:41:23.887Z,9.50
2018-12-21T13:43:54.200Z,9.40
2018-12-21T13:46:25.221Z,9.50
2018-12-21T13:48:57.338Z,9.50
2018-12-21T13:51:27.860Z,9.60
2018-12-21T13:53:58.097Z,9.40
2018-12-21T13:56:28.472Z,9.40
2018-12-21T13:58:58.822Z,9.50
2018-12-21T14:01:30.186Z,9.60
2018-12-21T14:04:00.425Z,9.50
2018-12-21T14:06:30.688Z,9.60
2018-12-21T14:09:00.927Z,9.60
2018-12-21T14:11:31.209Z,9.70
2018-12-21T14:14:01.514Z,9.70
2018-12-21T14:16:32.978Z,9.80
2018-12-21T14:19:03.681Z,9.50
2018-12-21T14:21:34.566Z,9.40
2018-12-21T14:24:05.990Z,9.30
2018-12-21T14:26:37.104Z,9.30
2018-12-21T14:29:07.903Z,9.50
2018-12-21T14:31:38.518Z,9.50
2018-12-21T14:34:09.748Z,9.50
2018-12-21T14:36:41.439Z,9.60
2018-12-21T14:39:12.650Z,9.60
2018-12-21T14:41:43.785Z,9.50
2018-12-21T14:44:15.141Z,9.60
2018-12-21T14:46:46.320Z,9.80
2018-12-21T14:49:17.624Z,9.70
2018-12-21T14:51:48.272Z,9.80
2018-12-21T14:54:19.554Z,9.70
2018-12-21T14:56:51.776Z,9.80
2018-12-21T14:59:23.073Z,9.80
2018-12-21T15:01:53.931Z,9.90
2018-12-21T15:04:25.337Z,9.90
2018-12-21T15:06:56.440Z,10.00
2018-12-21T15:09:27.652Z,10.00
2018-12-21T15:11:58.940Z,9.80
2018-12-21T15:14:30.445Z,9.80
2018-12-21T15:17:02.285Z,9.80
2018-12-21T15:19:33.925Z,9.60
2018-12-21T15:22:04.650Z,9.60
2018-12-21T15:24:35.679Z,9.50
2018-12-21T15:27:08.991Z,9.50
2018-12-21T15:29:41.757Z,9.50
2018-12-21T15:32:13.080Z,9.60
2018-12-21T15:34:43.471Z,9.80
2018-12-21T15:37:13.945Z,9.80
2018-12-21T15:39:44.504Z,9.80
2018-12-21T15:42:14.817Z,9.80
2018-12-21T15:44:45.738Z,9.80
2018-12-21T15:47:16.060Z,9.90
2018-12-21T15:49:46.307Z,10.00
2018-12-21T15:52:16.671Z,9.90
2018-12-21T15:54:46.936Z,9.90
2018-12-21T15:57:17.896Z,10.00
2018-12-21T15:59:48.296Z,10.00
2018-12-21T16:02:18.905Z,10.10
2018-12-21T16:04:49.423Z,10.10
2018-12-21T16:07:22.046Z,10.10
2018-12-21T16:09:53.751Z,10.00
2018-12-21T16:12:24.584Z,10.00
2018-12-21T16:14:56.268Z,10.00
2018-12-21T16:17:26.862Z,10.10
2018-12-21T16:19:57.515Z,10.10
2018-12-21T16:22:27.872Z,10.10
2018-12-21T16:24:58.651Z,10.10
2018-12-21T16:27:29.469Z,10.00
2018-12-21T16:29:59.705Z,9.90
2018-12-21T16:32:30.014Z,9.90
2018-12-21T16:35:00.484Z,9.90
2018-12-21T16:37:30.899Z,9.90
2018-12-21T16:40:01.288Z,9.90
2018-12-21T16:42:31.647Z,9.90
2018-12-21T16:45:02.052Z,9.90
2018-12-21T16:47:32.457Z,9.90
2018-12-21T16:50:04.820Z,9.90
2018-12-21T16:52:35.298Z,10.10
2018-12-21T16:55:05.876Z,10.10
2018-12-21T16:57:36.232Z,10.10
2018-12-21T17:00:13.826Z,10.20
2018-12-21T17:02:44.223Z,10.20
2018-12-21T17:05:15.111Z,10.30
2018-12-21T17:07:45.620Z,10.40
2018-12-21T17:10:20.103Z,10.50
2018-12-21T17:12:50.520Z,10.60
2018-12-21T17:15:21.088Z,10.90
2018-12-21T17:17:53.496Z,10.70
2018-12-21T17:20:25.896Z,10.60
2018-12-21T17:22:56.448Z,10.40
2018-12-21T17:25:28.390Z,10.50
2018-12-21T17:27:59.721Z,10.40
2018-12-21T17:30:31.125Z,10.40
2018-12-21T17:33:01.767Z,10.60
2018-12-21T17:35:32.065Z,10.80
2018-12-21T17:38:02.395Z,11.00
2018-12-21T17:40:32.673Z,11.10
2018-12-21T17:43:03.044Z,11.10
2018-12-21T17:45:33.324Z,11.10
2018-12-21T17:48:03.583Z,11.10
2018-12-21T17:50:33.867Z,11.20
2018-12-21T17:53:04.132Z,11.30
2018-12-21T17:55:34.410Z,11.30
2018-12-21T17:58:06.679Z,11.30
2018-12-21T18:00:38.269Z,11.30
2018-12-21T18:03:15.621Z,11.40
2018-12-21T18:05:45.976Z,11.40
2018-12-21T18:08:16.312Z,11.40
2018-12-21T18:10:46.579Z,11.40
2018-12-21T18:13:16.824Z,11.40
2018-12-21T18:15:47.095Z,11.40
2018-12-21T18:18:25.031Z,11.30
2018-12-21T18:20:50.197Z,11.40
2018-12-21T18:23:20.853Z,11.50
2018-12-21T18:25:51.613Z,11.50
2018-12-21T18:28:27.452Z,11.60
2018-12-21T18:31:12.759Z,11.80
2018-12-21T18:33:44.464Z,11.70
2018-12-21T18:36:14.744Z,11.70
2018-12-21T18:38:45.664Z,11.60
2018-12-21T18:41:16.040Z,11.50
2018-12-21T18:43:46.316Z,11.60
2018-12-21T18:46:16.611Z,11.70
2018-12-21T18:48:46.877Z,11.90
2018-12-21T18:51:17.304Z,11.80
2018-12-21T18:53:47.575Z,11.60
2018-12-21T18:56:23.456Z,11.70
2018-12-21T18:58:53.758Z,11.60
2018-12-21T19:01:24.044Z,11.60
2018-12-21T19:03:54.293Z,11.50
2018-12-21T19:06:24.865Z,11.60
2018-12-21T19:08:55.112Z,11.70
2018-12-21T19:11:25.401Z,11.70
2018-12-21T19:13:55.871Z,11.70
2018-12-21T19:16:26.171Z,11.60
2018-12-21T19:18:56.454Z,11.50
2018-12-21T19:21:26.872Z,11.40
2018-12-21T19:23:57.401Z,11.40
2018-12-21T19:26:27.898Z,11.30
2018-12-21T19:28:58.423Z,11.30
2018-12-21T19:31:29.066Z,11.30
2018-12-21T19:33:59.668Z,11.30
2018-12-21T19:36:30.468Z,11.10
2018-12-21T19:39:00.975Z,11.20
2018-12-21T19:41:31.456Z,11.20
2018-12-21T19:44:01.835Z,11.10
2018-12-21T19:46:32.552Z,11.20
2018-12-21T19:49:02.788Z,11.20
2018-12-21T19:51:33.095Z,11.30
2018-12-21T19:54:03.340Z,11.30
2018-12-21T19:56:47.230Z,11.40
2018-12-21T19:59:17.738Z,11.50
2018-12-21T20:01:48.483Z,11.40
2018-12-21T20:04:19.222Z,11.50
2018-12-21T20:06:50.141Z,11.60
2018-12-21T20:09:20.608Z,11.60
2018-12-21T20:11:51.027Z,11.60
2018-12-21T20:14:21.506Z,11.60
2018-12-21T20:16:51.825Z,11.50
2018-12-21T20:19:22.382Z,11.40
2018-12-21T20:21:52.939Z,11.50
2018-12-21T20:24:28.448Z,11.40
2018-12-21T20:27:13.368Z,11.30
2018-12-21T20:29:40.617Z,11.40
2018-12-21T20:32:11.210Z,11.50
2018-12-21T20:34:42.796Z,11.60
2018-12-21T20:37:15.089Z,11.50
2018-12-21T20:39:48.008Z,11.40
2018-12-21T20:42:19.050Z,11.40
2018-12-21T20:44:50.667Z,11.40
2018-12-21T20:47:21.946Z,11.50
2018-12-21T20:49:52.542Z,11.50
2018-12-21T20:52:22.895Z,11.50
2018-12-21T20:54:54.360Z,11.60
2018-12-21T20:57:29.073Z,11.70
2018-12-21T21:00:00.587Z,11.60
2018-12-21T21:02:31.833Z,11.70
2018-12-21T21:05:02.535Z,11.80
2018-12-21T21:07:35.388Z,11.80
2018-12-21T21:10:11.239Z,11.70
2018-12-21T21:12:43.032Z,11.50
2018-12-21T21:15:14.823Z,11.70
2018-12-21T21:17:45.580Z,11.90
2018-12-21T21:20:17.325Z,11.90
2018-12-21T21:22:48.642Z,11.80
2018-12-21T21:25:20.584Z,12.00
2018-12-21T21:27:51.716Z,12.00
2018-12-21T21:30:22.931Z,12.00
2018-12-21T21:32:53.804Z,12.10
2018-12-21T21:35:24.092Z,12.10
2018-12-21T21:37:55.104Z,11.80
2018-12-21T21:40:26.316Z,11.90
2018-12-21T21:42:57.619Z,12.10
2018-12-21T21:45:29.177Z,12.10
2018-12-21T21:48:00.398Z,12.00
2018-12-21T21:50:31.472Z,12.00
2018-12-21T21:53:02.124Z,12.00
2018-12-21T21:55:33.021Z,12.10
2018-12-21T21:58:04.284Z,12.00
2018-12-21T22:00:35.964Z,11.90
2018-12-21T22:03:06.953Z,11.80
2018-12-21T22:05:39.152Z,11.90
2018-12-21T22:08:10.457Z,11.90
2018-12-21T22:10:41.760Z,12.00
2018-12-21T22:13:12.541Z,11.90
2018-12-21T22:15:43.492Z,11.90
2018-12-21T22:18:15.254Z,12.00
2018-12-21T22:20:46.425Z,12.00
2018-12-21T22:23:18.170Z,12.00
2018-12-21T22:25:53.268Z,11.90
2018-12-21T22:28:23.432Z,11.90
2018-12-21T22:30:54.581Z,11.90
2018-12-21T22:33:25.442Z,12.00
2018-12-21T22:35:56.744Z,12.10
2018-12-21T22:38:28.120Z,12.10
2018-12-21T22:40:59.404Z,11.90
2018-12-21T22:43:30.159Z,11.80
2018-12-21T22:46:01.716Z,11.90
2018-12-21T22:48:33.391Z,11.80
2018-12-21T22:51:04.071Z,11.80
2018-12-21T22:53:34.545Z,11.80
2018-12-21T22:56:04.795Z,11.90
2018-12-21T22:58:35.056Z,11.80
2018-12-21T23:01:05.555Z,11.70
2018-12-21T23:03:35.825Z,11.70
2018-12-21T23:06:06.074Z,11.70
2018-12-21T23:08:45.034Z,11.80
2018-12-21T23:11:23.725Z,11.80
2018-12-21T23:14:07.865Z,11.70
2018-12-21T23:16:39.604Z,11.50
2018-12-21T23:19:32.568Z,11.50
2018-12-21T23:22:02.892Z,11.60
2018-12-21T23:24:33.194Z,11.40
2018-12-21T23:27:03.581Z,11.30
2018-12-21T23:29:33.912Z,11.30
2018-12-21T23:32:04.241Z,11.30
2018-12-21T23:34:35.363Z,11.30
2018-12-21T23:37:05.720Z,11.40
2018-12-21T23:39:36.280Z,11.40
2018-12-21T23:42:06.765Z,11.40
2018-12-21T23:44:37.216Z,11.40
2018-12-21T23:47:08.489Z,11.40
2018-12-21T23:49:38.934Z,11.40
2018-12-21T23:52:09.324Z,11.40
2018-12-21T23:54:39.612Z,11.50
2018-12-21T23:57:09.849Z,11.30
2018-12-21T23:59:40.447Z,11.40
